sensor_id;sensor_type;location;lat;lon;timestamp;P1;durP1;ratioP1;P2;durP2;ratioP2
64052;SDS011;50299;49.524;8.536;2023-05-18T00:02:18;7.10;;;4.40;;
64052;SDS011;50299;49.524;8.536;2023-05-18T00:04:46;6.35;;;3.88;;
64052;SDS011;50299;49.524;8.536;2023-05-18T00:07:12;6.38;;;4.20;;
64052;SDS011;50299;49.524;8.536;2023-05-18T00:09:39;5.38;;;4.25;;
64052;SDS011;50299;49.524;8.536;2023-05-18T00:12:06;6.75;;;3.97;;
64052;SDS011;50299;49.524;8.536;2023-05-18T00:14:35;7.72;;;3.88;;
64052;SDS011;50299;49.524;8.536;2023-05-18T00:17:01;8.90;;;3.72;;
64052;SDS011;50299;49.524;8.536;2023-05-18T00:19:28;6.80;;;3.97;;
64052;SDS011;50299;49.524;8.536;2023-05-18T00:21:55;6.45;;;4.28;;
64052;SDS011;50299;49.524;8.536;2023-05-18T00:24:22;9.40;;;4.47;;
64052;SDS011;50299;49.524;8.536;2023-05-18T00:26:49;7.80;;;4.50;;
64052;SDS011;50299;49.524;8.536;2023-05-18T00:29:15;6.65;;;3.95;;
64052;SDS011;50299;49.524;8.536;2023-05-18T00:31:41;9.23;;;4.53;;
64052;SDS011;50299;49.524;8.536;2023-05-18T00:34:11;6.20;;;4.22;;
64052;SDS011;50299;49.524;8.536;2023-05-18T00:36:38;7.85;;;4.65;;
64052;SDS011;50299;49.524;8.536;2023-05-18T00:39:05;8.45;;;4.50;;
64052;SDS011;50299;49.524;8.536;2023-05-18T00:41:35;9.40;;;5.10;;
64052;SDS011;50299;49.524;8.536;2023-05-18T00:44:01;7.97;;;3.72;;
64052;SDS011;50299;49.524;8.536;2023-05-18T00:46:29;8.25;;;5.10;;
64052;SDS011;50299;49.524;8.536;2023-05-18T00:48:57;9.75;;;5.28;;
64052;SDS011;50299;49.524;8.536;2023-05-18T00:51:24;17.40;;;7.60;;
64052;SDS011;50299;49.524;8.536;2023-05-18T00:53:52;8.98;;;5.80;;
64052;SDS011;50299;49.524;8.536;2023-05-18T00:56:20;8.25;;;5.68;;
64052;SDS011;50299;49.524;8.536;2023-05-18T00:58:51;6.43;;;5.80;;
64052;SDS011;50299;49.524;8.536;2023-05-18T01:01:27;4.72;;;3.47;;
64052;SDS011;50299;49.524;8.536;2023-05-18T01:04:02;5.00;;;4.05;;
64052;SDS011;50299;49.524;8.536;2023-05-18T01:06:30;5.22;;;3.92;;
64052;SDS011;50299;49.524;8.536;2023-05-18T01:09:06;5.20;;;3.47;;
64052;SDS011;50299;49.524;8.536;2023-05-18T01:14:21;5.68;;;3.65;;
64052;SDS011;50299;49.524;8.536;2023-05-18T01:17:10;13.77;;;5.18;;
64052;SDS011;50299;49.524;8.536;2023-05-18T01:19:59;4.80;;;3.78;;
64052;SDS011;50299;49.524;8.536;2023-05-18T01:28:07;6.03;;;4.65;;
64052;SDS011;50299;49.524;8.536;2023-05-18T01:30:39;5.65;;;3.72;;
64052;SDS011;50299;49.524;8.536;2023-05-18T01:33:07;6.85;;;4.30;;
64052;SDS011;50299;49.524;8.536;2023-05-18T01:35:35;7.00;;;4.30;;
64052;SDS011;50299;49.524;8.536;2023-05-18T01:38:03;5.15;;;3.90;;
64052;SDS011;50299;49.524;8.536;2023-05-18T01:40:31;6.60;;;4.50;;
64052;SDS011;50299;49.524;8.536;2023-05-18T01:43:04;6.47;;;4.90;;
64052;SDS011;50299;49.524;8.536;2023-05-18T01:45:38;6.25;;;3.90;;
64052;SDS011;50299;49.524;8.536;2023-05-18T01:48:06;6.93;;;4.93;;
64052;SDS011;50299;49.524;8.536;2023-05-18T01:50:35;8.35;;;6.10;;
64052;SDS011;50299;49.524;8.536;2023-05-18T01:53:19;9.48;;;6.07;;
64052;SDS011;50299;49.524;8.536;2023-05-18T01:55:50;10.73;;;6.57;;
64052;SDS011;50299;49.524;8.536;2023-05-18T01:58:20;7.30;;;3.83;;
64052;SDS011;50299;49.524;8.536;2023-05-18T02:00:47;6.57;;;3.97;;
64052;SDS011;50299;49.524;8.536;2023-05-18T02:03:14;6.78;;;4.75;;
64052;SDS011;50299;49.524;8.536;2023-05-18T02:05:42;4.82;;;3.60;;
64052;SDS011;50299;49.524;8.536;2023-05-18T02:08:08;5.30;;;3.78;;
64052;SDS011;50299;49.524;8.536;2023-05-18T02:10:34;5.13;;;3.58;;
64052;SDS011;50299;49.524;8.536;2023-05-18T02:13:01;9.00;;;4.75;;
64052;SDS011;50299;49.524;8.536;2023-05-18T02:15:27;5.43;;;4.40;;
64052;SDS011;50299;49.524;8.536;2023-05-18T02:17:54;7.75;;;4.65;;
64052;SDS011;50299;49.524;8.536;2023-05-18T02:20:23;9.07;;;4.07;;
64052;SDS011;50299;49.524;8.536;2023-05-18T02:22:49;5.38;;;4.55;;
64052;SDS011;50299;49.524;8.536;2023-05-18T02:25:16;8.10;;;5.07;;
64052;SDS011;50299;49.524;8.536;2023-05-18T02:27:42;7.88;;;4.75;;
64052;SDS011;50299;49.524;8.536;2023-05-18T02:30:09;9.32;;;6.38;;
64052;SDS011;50299;49.524;8.536;2023-05-18T02:32:39;8.02;;;4.53;;
64052;SDS011;50299;49.524;8.536;2023-05-18T02:35:07;5.72;;;4.45;;
64052;SDS011;50299;49.524;8.536;2023-05-18T02:37:34;5.90;;;4.55;;
64052;SDS011;50299;49.524;8.536;2023-05-18T02:40:07;7.32;;;3.90;;
64052;SDS011;50299;49.524;8.536;2023-05-18T02:42:35;7.15;;;5.85;;
64052;SDS011;50299;49.524;8.536;2023-05-18T02:45:01;5.35;;;4.20;;
64052;SDS011;50299;49.524;8.536;2023-05-18T02:47:28;7.55;;;5.40;;
64052;SDS011;50299;49.524;8.536;2023-05-18T02:49:54;9.00;;;5.10;;
64052;SDS011;50299;49.524;8.536;2023-05-18T02:52:21;6.05;;;4.22;;
64052;SDS011;50299;49.524;8.536;2023-05-18T02:54:47;6.57;;;3.97;;
64052;SDS011;50299;49.524;8.536;2023-05-18T02:57:14;9.15;;;5.32;;
64052;SDS011;50299;49.524;8.536;2023-05-18T02:59:40;5.47;;;4.15;;
64052;SDS011;50299;49.524;8.536;2023-05-18T03:02:07;8.60;;;5.03;;
64052;SDS011;50299;49.524;8.536;2023-05-18T03:04:33;8.85;;;4.53;;
64052;SDS011;50299;49.524;8.536;2023-05-18T03:06:59;7.30;;;4.10;;
64052;SDS011;50299;49.524;8.536;2023-05-18T03:09:28;5.45;;;4.38;;
64052;SDS011;50299;49.524;8.536;2023-05-18T03:11:54;6.43;;;5.05;;
64052;SDS011;50299;49.524;8.536;2023-05-18T03:14:21;6.47;;;5.07;;
64052;SDS011;50299;49.524;8.536;2023-05-18T03:16:47;7.50;;;4.28;;
64052;SDS011;50299;49.524;8.536;2023-05-18T03:19:19;9.20;;;4.90;;
64052;SDS011;50299;49.524;8.536;2023-05-18T03:21:45;10.02;;;5.07;;
64052;SDS011;50299;49.524;8.536;2023-05-18T03:24:14;8.30;;;4.55;;
64052;SDS011;50299;49.524;8.536;2023-05-18T03:26:41;8.07;;;5.57;;
64052;SDS011;50299;49.524;8.536;2023-05-18T03:29:09;7.95;;;4.18;;
64052;SDS011;50299;49.524;8.536;2023-05-18T03:31:38;11.85;;;5.57;;
64052;SDS011;50299;49.524;8.536;2023-05-18T03:34:05;10.07;;;4.30;;
64052;SDS011;50299;49.524;8.536;2023-05-18T03:36:31;6.35;;;4.97;;
64052;SDS011;50299;49.524;8.536;2023-05-18T03:38:58;10.65;;;5.28;;
64052;SDS011;50299;49.524;8.536;2023-05-18T03:41:24;7.65;;;4.43;;
64052;SDS011;50299;49.524;8.536;2023-05-18T03:43:51;8.68;;;4.90;;
64052;SDS011;50299;49.524;8.536;2023-05-18T03:46:17;9.75;;;5.82;;
64052;SDS011;50299;49.524;8.536;2023-05-18T03:48:44;11.90;;;5.38;;
64052;SDS011;50299;49.524;8.536;2023-05-18T03:51:10;8.30;;;4.53;;
64052;SDS011;50299;49.524;8.536;2023-05-18T03:53:37;7.55;;;4.72;;
64052;SDS011;50299;49.524;8.536;2023-05-18T03:56:03;9.63;;;5.00;;
64052;SDS011;50299;49.524;8.536;2023-05-18T03:58:30;9.57;;;5.28;;
64052;SDS011;50299;49.524;8.536;2023-05-18T04:00:56;9.48;;;5.50;;
64052;SDS011;50299;49.524;8.536;2023-05-18T04:03:23;6.53;;;5.00;;
64052;SDS011;50299;49.524;8.536;2023-05-18T04:05:52;8.45;;;5.13;;
64052;SDS011;50299;49.524;8.536;2023-05-18T04:08:19;6.32;;;4.38;;
64052;SDS011;50299;49.524;8.536;2023-05-18T04:10:45;10.32;;;5.63;;
64052;SDS011;50299;49.524;8.536;2023-05-18T04:13:12;7.47;;;4.70;;
64052;SDS011;50299;49.524;8.536;2023-05-18T04:15:38;9.45;;;5.88;;
64052;SDS011;50299;49.524;8.536;2023-05-18T04:18:05;8.07;;;5.47;;
64052;SDS011;50299;49.524;8.536;2023-05-18T04:20:31;8.70;;;6.40;;
64052;SDS011;50299;49.524;8.536;2023-05-18T04:22:58;6.20;;;5.57;;
64052;SDS011;50299;49.524;8.536;2023-05-18T04:25:25;9.55;;;5.93;;
64052;SDS011;50299;49.524;8.536;2023-05-18T04:27:55;7.18;;;4.78;;
64052;SDS011;50299;49.524;8.536;2023-05-18T04:30:22;10.45;;;7.50;;
64052;SDS011;50299;49.524;8.536;2023-05-18T04:32:51;7.70;;;5.70;;
64052;SDS011;50299;49.524;8.536;2023-05-18T04:35:20;14.43;;;8.07;;
64052;SDS011;50299;49.524;8.536;2023-05-18T04:37:46;14.02;;;5.85;;
64052;SDS011;50299;49.524;8.536;2023-05-18T04:40:12;10.95;;;6.78;;
64052;SDS011;50299;49.524;8.536;2023-05-18T04:42:42;6.78;;;4.72;;
64052;SDS011;50299;49.524;8.536;2023-05-18T04:45:14;6.70;;;4.72;;
64052;SDS011;50299;49.524;8.536;2023-05-18T04:47:42;9.73;;;5.88;;
64052;SDS011;50299;49.524;8.536;2023-05-18T04:52:44;8.25;;;4.88;;
64052;SDS011;50299;49.524;8.536;2023-05-18T04:55:18;7.85;;;5.32;;
64052;SDS011;50299;49.524;8.536;2023-05-18T04:57:51;7.82;;;5.55;;
64052;SDS011;50299;49.524;8.536;2023-05-18T05:00:22;7.05;;;4.90;;
64052;SDS011;50299;49.524;8.536;2023-05-18T05:02:49;6.70;;;4.32;;
64052;SDS011;50299;49.524;8.536;2023-05-18T05:05:16;6.35;;;3.88;;
64052;SDS011;50299;49.524;8.536;2023-05-18T05:07:44;9.23;;;5.63;;
64052;SDS011;50299;49.524;8.536;2023-05-18T05:10:10;8.25;;;4.55;;
64052;SDS011;50299;49.524;8.536;2023-05-18T05:12:37;7.90;;;3.85;;
64052;SDS011;50299;49.524;8.536;2023-05-18T05:15:03;7.30;;;3.45;;
64052;SDS011;50299;49.524;8.536;2023-05-18T05:17:30;7.55;;;3.55;;
64052;SDS011;50299;49.524;8.536;2023-05-18T05:19:57;4.65;;;2.75;;
64052;SDS011;50299;49.524;8.536;2023-05-18T05:22:23;5.05;;;3.28;;
64052;SDS011;50299;49.524;8.536;2023-05-18T05:24:50;5.25;;;3.17;;
64052;SDS011;50299;49.524;8.536;2023-05-18T05:27:16;5.65;;;3.17;;
64052;SDS011;50299;49.524;8.536;2023-05-18T05:29:47;9.38;;;3.33;;
64052;SDS011;50299;49.524;8.536;2023-05-18T05:32:15;5.85;;;3.35;;
64052;SDS011;50299;49.524;8.536;2023-05-18T05:34:42;6.53;;;3.03;;
64052;SDS011;50299;49.524;8.536;2023-05-18T05:37:11;7.97;;;3.13;;
64052;SDS011;50299;49.524;8.536;2023-05-18T05:39:38;7.03;;;3.78;;
64052;SDS011;50299;49.524;8.536;2023-05-18T05:42:05;6.18;;;3.45;;
64052;SDS011;50299;49.524;8.536;2023-05-18T05:44:33;5.65;;;3.30;;
64052;SDS011;50299;49.524;8.536;2023-05-18T05:46:59;8.15;;;2.88;;
64052;SDS011;50299;49.524;8.536;2023-05-18T05:49:26;4.45;;;3.03;;
64052;SDS011;50299;49.524;8.536;2023-05-18T05:51:53;12.05;;;3.17;;
64052;SDS011;50299;49.524;8.536;2023-05-18T05:54:19;7.25;;;2.90;;
64052;SDS011;50299;49.524;8.536;2023-05-18T05:56:45;7.38;;;3.40;;
64052;SDS011;50299;49.524;8.536;2023-05-18T05:59:12;6.68;;;3.40;;
64052;SDS011;50299;49.524;8.536;2023-05-18T06:01:38;8.45;;;3.10;;
64052;SDS011;50299;49.524;8.536;2023-05-18T06:04:05;4.60;;;2.80;;
64052;SDS011;50299;49.524;8.536;2023-05-18T06:06:36;6.57;;;2.92;;
64052;SDS011;50299;49.524;8.536;2023-05-18T06:09:04;8.48;;;2.97;;
64052;SDS011;50299;49.524;8.536;2023-05-18T06:11:31;8.93;;;3.42;;
64052;SDS011;50299;49.524;8.536;2023-05-18T06:13:57;5.25;;;2.90;;
64052;SDS011;50299;49.524;8.536;2023-05-18T06:16:24;7.03;;;3.40;;
64052;SDS011;50299;49.524;8.536;2023-05-18T06:18:51;7.78;;;3.28;;
64052;SDS011;50299;49.524;8.536;2023-05-18T06:21:17;7.53;;;2.85;;
64052;SDS011;50299;49.524;8.536;2023-05-18T06:23:44;6.55;;;2.92;;
64052;SDS011;50299;49.524;8.536;2023-05-18T06:26:11;6.40;;;2.63;;
64052;SDS011;50299;49.524;8.536;2023-05-18T06:28:37;5.38;;;3.38;;
64052;SDS011;50299;49.524;8.536;2023-05-18T06:31:03;6.95;;;3.08;;
64052;SDS011;50299;49.524;8.536;2023-05-18T06:33:30;5.20;;;2.90;;
64052;SDS011;50299;49.524;8.536;2023-05-18T06:35:57;5.82;;;2.60;;
64052;SDS011;50299;49.524;8.536;2023-05-18T06:38:23;8.93;;;2.97;;
64052;SDS011;50299;49.524;8.536;2023-05-18T06:40:50;9.43;;;2.88;;
64052;SDS011;50299;49.524;8.536;2023-05-18T06:43:17;5.35;;;2.65;;
64052;SDS011;50299;49.524;8.536;2023-05-18T06:45:44;5.53;;;2.90;;
64052;SDS011;50299;49.524;8.536;2023-05-18T06:48:11;8.98;;;3.40;;
64052;SDS011;50299;49.524;8.536;2023-05-18T06:50:37;5.43;;;2.42;;
64052;SDS011;50299;49.524;8.536;2023-05-18T06:53:04;6.18;;;3.20;;
64052;SDS011;50299;49.524;8.536;2023-05-18T06:55:31;5.97;;;2.67;;
64052;SDS011;50299;49.524;8.536;2023-05-18T06:57:58;7.43;;;3.08;;
64052;SDS011;50299;49.524;8.536;2023-05-18T07:00:25;7.57;;;3.47;;
64052;SDS011;50299;49.524;8.536;2023-05-18T07:02:51;6.55;;;3.25;;
64052;SDS011;50299;49.524;8.536;2023-05-18T07:05:26;6.60;;;3.10;;
64052;SDS011;50299;49.524;8.536;2023-05-18T07:07:53;6.50;;;3.10;;
64052;SDS011;50299;49.524;8.536;2023-05-18T07:10:20;6.20;;;2.30;;
64052;SDS011;50299;49.524;8.536;2023-05-18T07:12:48;5.88;;;2.50;;
64052;SDS011;50299;49.524;8.536;2023-05-18T07:15:14;6.55;;;2.70;;
64052;SDS011;50299;49.524;8.536;2023-05-18T07:17:42;8.75;;;2.90;;
64052;SDS011;50299;49.524;8.536;2023-05-18T07:20:10;4.10;;;2.97;;
64052;SDS011;50299;49.524;8.536;2023-05-18T07:22:37;7.68;;;2.85;;
64052;SDS011;50299;49.524;8.536;2023-05-18T07:25:03;5.88;;;2.83;;
64052;SDS011;50299;49.524;8.536;2023-05-18T07:27:30;8.02;;;3.15;;
64052;SDS011;50299;49.524;8.536;2023-05-18T07:29:58;4.80;;;2.88;;
64052;SDS011;50299;49.524;8.536;2023-05-18T07:32:25;6.60;;;2.97;;
64052;SDS011;50299;49.524;8.536;2023-05-18T07:34:51;8.52;;;3.15;;
64052;SDS011;50299;49.524;8.536;2023-05-18T07:37:18;8.85;;;2.95;;
64052;SDS011;50299;49.524;8.536;2023-05-18T07:39:45;4.68;;;2.60;;
64052;SDS011;50299;49.524;8.536;2023-05-18T07:42:11;8.85;;;3.05;;
64052;SDS011;50299;49.524;8.536;2023-05-18T07:44:38;5.68;;;2.90;;
64052;SDS011;50299;49.524;8.536;2023-05-18T07:47:04;5.32;;;2.65;;
64052;SDS011;50299;49.524;8.536;2023-05-18T07:49:31;6.20;;;2.83;;
64052;SDS011;50299;49.524;8.536;2023-05-18T07:51:57;7.50;;;2.85;;
64052;SDS011;50299;49.524;8.536;2023-05-18T07:54:25;6.90;;;2.75;;
64052;SDS011;50299;49.524;8.536;2023-05-18T07:56:52;8.32;;;3.30;;
64052;SDS011;50299;49.524;8.536;2023-05-18T07:59:18;8.07;;;2.80;;
64052;SDS011;50299;49.524;8.536;2023-05-18T08:01:45;7.85;;;3.13;;
64052;SDS011;50299;49.524;8.536;2023-05-18T08:04:14;8.20;;;3.47;;
64052;SDS011;50299;49.524;8.536;2023-05-18T08:06:41;7.50;;;3.15;;
64052;SDS011;50299;49.524;8.536;2023-05-18T08:09:07;5.55;;;2.53;;
64052;SDS011;50299;49.524;8.536;2023-05-18T08:11:34;9.13;;;3.38;;
64052;SDS011;50299;49.524;8.536;2023-05-18T08:14:01;7.13;;;3.22;;
64052;SDS011;50299;49.524;8.536;2023-05-18T08:16:27;7.03;;;2.78;;
64052;SDS011;50299;49.524;8.536;2023-05-18T08:18:54;6.85;;;2.80;;
64052;SDS011;50299;49.524;8.536;2023-05-18T08:21:20;6.63;;;3.03;;
64052;SDS011;50299;49.524;8.536;2023-05-18T08:23:47;8.38;;;2.80;;
64052;SDS011;50299;49.524;8.536;2023-05-18T08:26:13;7.38;;;2.58;;
64052;SDS011;50299;49.524;8.536;2023-05-18T08:28:39;5.18;;;2.33;;
64052;SDS011;50299;49.524;8.536;2023-05-18T08:31:06;6.82;;;2.60;;
64052;SDS011;50299;49.524;8.536;2023-05-18T08:33:36;5.15;;;2.28;;
64052;SDS011;50299;49.524;8.536;2023-05-18T08:36:11;5.50;;;2.55;;
64052;SDS011;50299;49.524;8.536;2023-05-18T08:38:38;5.13;;;2.30;;
64052;SDS011;50299;49.524;8.536;2023-05-18T08:41:16;7.15;;;2.88;;
64052;SDS011;50299;49.524;8.536;2023-05-18T08:43:52;5.20;;;2.10;;
64052;SDS011;50299;49.524;8.536;2023-05-18T08:46:37;10.13;;;2.97;;
64052;SDS011;50299;49.524;8.536;2023-05-18T08:49:06;5.47;;;2.75;;
64052;SDS011;50299;49.524;8.536;2023-05-18T08:51:37;9.10;;;2.78;;
64052;SDS011;50299;49.524;8.536;2023-05-18T08:54:06;5.35;;;2.53;;
64052;SDS011;50299;49.524;8.536;2023-05-18T08:56:34;6.38;;;2.40;;
64052;SDS011;50299;49.524;8.536;2023-05-18T08:59:03;6.50;;;3.03;;
64052;SDS011;50299;49.524;8.536;2023-05-18T09:01:33;7.20;;;2.80;;
64052;SDS011;50299;49.524;8.536;2023-05-18T09:04:00;5.65;;;2.50;;
64052;SDS011;50299;49.524;8.536;2023-05-18T09:06:27;6.18;;;2.45;;
64052;SDS011;50299;49.524;8.536;2023-05-18T09:08:54;5.53;;;2.13;;
64052;SDS011;50299;49.524;8.536;2023-05-18T09:11:24;8.85;;;2.85;;
64052;SDS011;50299;49.524;8.536;2023-05-18T09:13:52;6.32;;;2.63;;
64052;SDS011;50299;49.524;8.536;2023-05-18T09:16:19;7.93;;;3.20;;
64052;SDS011;50299;49.524;8.536;2023-05-18T09:18:46;5.43;;;3.00;;
64052;SDS011;50299;49.524;8.536;2023-05-18T09:21:12;7.32;;;2.72;;
64052;SDS011;50299;49.524;8.536;2023-05-18T09:23:39;8.73;;;2.85;;
64052;SDS011;50299;49.524;8.536;2023-05-18T09:26:06;6.45;;;2.80;;
64052;SDS011;50299;49.524;8.536;2023-05-18T09:28:37;7.65;;;2.80;;
64052;SDS011;50299;49.524;8.536;2023-05-18T09:31:38;5.85;;;3.03;;
64052;SDS011;50299;49.524;8.536;2023-05-18T09:33:58;5.22;;;2.72;;
64052;SDS011;50299;49.524;8.536;2023-05-18T09:36:26;9.43;;;2.83;;
64052;SDS011;50299;49.524;8.536;2023-05-18T09:38:54;6.35;;;2.63;;
64052;SDS011;50299;49.524;8.536;2023-05-18T09:41:20;9.32;;;2.75;;
64052;SDS011;50299;49.524;8.536;2023-05-18T09:43:51;5.70;;;3.00;;
64052;SDS011;50299;49.524;8.536;2023-05-18T09:46:19;5.00;;;2.40;;
64052;SDS011;50299;49.524;8.536;2023-05-18T09:48:51;6.28;;;2.50;;
64052;SDS011;50299;49.524;8.536;2023-05-18T09:51:20;7.85;;;2.40;;
64052;SDS011;50299;49.524;8.536;2023-05-18T09:53:57;8.50;;;2.80;;
64052;SDS011;50299;49.524;8.536;2023-05-18T09:56:24;5.93;;;2.92;;
64052;SDS011;50299;49.524;8.536;2023-05-18T09:58:52;4.35;;;2.38;;
64052;SDS011;50299;49.524;8.536;2023-05-18T10:01:19;6.45;;;2.92;;
64052;SDS011;50299;49.524;8.536;2023-05-18T10:03:45;9.80;;;2.83;;
64052;SDS011;50299;49.524;8.536;2023-05-18T10:08:45;7.68;;;2.58;;
64052;SDS011;50299;49.524;8.536;2023-05-18T10:11:11;5.13;;;2.65;;
64052;SDS011;50299;49.524;8.536;2023-05-18T10:13:38;7.90;;;2.70;;
64052;SDS011;50299;49.524;8.536;2023-05-18T10:16:04;9.15;;;3.35;;
64052;SDS011;50299;49.524;8.536;2023-05-18T10:18:34;5.68;;;2.60;;
64052;SDS011;50299;49.524;8.536;2023-05-18T10:21:03;5.70;;;2.80;;
64052;SDS011;50299;49.524;8.536;2023-05-18T10:23:32;6.53;;;3.08;;
64052;SDS011;50299;49.524;8.536;2023-05-18T10:26:03;6.55;;;2.60;;
64052;SDS011;50299;49.524;8.536;2023-05-18T10:28:34;8.20;;;3.05;;
64052;SDS011;50299;49.524;8.536;2023-05-18T10:31:06;4.68;;;2.45;;
64052;SDS011;50299;49.524;8.536;2023-05-18T10:33:36;4.03;;;2.35;;
64052;SDS011;50299;49.524;8.536;2023-05-18T10:36:03;6.80;;;2.88;;
64052;SDS011;50299;49.524;8.536;2023-05-18T10:38:32;5.15;;;2.50;;
64052;SDS011;50299;49.524;8.536;2023-05-18T10:41:01;7.00;;;2.63;;
64052;SDS011;50299;49.524;8.536;2023-05-18T10:43:31;9.68;;;2.67;;
64052;SDS011;50299;49.524;8.536;2023-05-18T10:45:59;5.82;;;2.60;;
64052;SDS011;50299;49.524;8.536;2023-05-18T10:48:27;9.30;;;2.55;;
64052;SDS011;50299;49.524;8.536;2023-05-18T10:50:55;6.88;;;2.53;;
64052;SDS011;50299;49.524;8.536;2023-05-18T10:53:24;6.78;;;2.88;;
64052;SDS011;50299;49.524;8.536;2023-05-18T10:55:54;7.40;;;2.75;;
64052;SDS011;50299;49.524;8.536;2023-05-18T10:58:26;7.57;;;2.50;;
64052;SDS011;50299;49.524;8.536;2023-05-18T11:00:56;6.20;;;2.63;;
64052;SDS011;50299;49.524;8.536;2023-05-18T11:03:27;9.48;;;2.85;;
64052;SDS011;50299;49.524;8.536;2023-05-18T11:06:29;6.78;;;2.72;;
64052;SDS011;50299;49.524;8.536;2023-05-18T11:08:49;5.55;;;2.53;;
64052;SDS011;50299;49.524;8.536;2023-05-18T11:11:16;5.18;;;2.47;;
64052;SDS011;50299;49.524;8.536;2023-05-18T11:13:48;5.95;;;2.63;;
64052;SDS011;50299;49.524;8.536;2023-05-18T11:16:17;3.80;;;2.50;;
64052;SDS011;50299;49.524;8.536;2023-05-18T11:18:48;5.60;;;2.63;;
64052;SDS011;50299;49.524;8.536;2023-05-18T11:21:17;4.55;;;2.58;;
64052;SDS011;50299;49.524;8.536;2023-05-18T11:27:12;5.75;;;2.67;;
64052;SDS011;50299;49.524;8.536;2023-05-18T11:29:41;5.13;;;2.40;;
64052;SDS011;50299;49.524;8.536;2023-05-18T11:32:23;5.78;;;2.70;;
64052;SDS011;50299;49.524;8.536;2023-05-18T11:34:56;10.57;;;2.80;;
64052;SDS011;50299;49.524;8.536;2023-05-18T11:40:08;5.82;;;2.35;;
64052;SDS011;50299;49.524;8.536;2023-05-18T11:42:39;9.00;;;2.47;;
64052;SDS011;50299;49.524;8.536;2023-05-18T11:45:06;5.25;;;2.33;;
64052;SDS011;50299;49.524;8.536;2023-05-18T11:47:37;7.70;;;3.08;;
64052;SDS011;50299;49.524;8.536;2023-05-18T11:50:08;6.85;;;2.80;;
64052;SDS011;50299;49.524;8.536;2023-05-18T11:52:51;5.25;;;2.60;;
64052;SDS011;50299;49.524;8.536;2023-05-18T11:55:19;6.45;;;3.05;;
64052;SDS011;50299;49.524;8.536;2023-05-18T11:57:49;8.90;;;2.78;;
64052;SDS011;50299;49.524;8.536;2023-05-18T12:00:20;6.35;;;2.75;;
64052;SDS011;50299;49.524;8.536;2023-05-18T12:02:49;5.20;;;2.47;;
64052;SDS011;50299;49.524;8.536;2023-05-18T12:05:17;6.05;;;2.60;;
64052;SDS011;50299;49.524;8.536;2023-05-18T12:07:45;5.80;;;2.78;;
64052;SDS011;50299;49.524;8.536;2023-05-18T12:10:17;4.50;;;2.30;;
64052;SDS011;50299;49.524;8.536;2023-05-18T12:15:14;6.22;;;2.47;;
64052;SDS011;50299;49.524;8.536;2023-05-18T12:17:43;5.82;;;2.42;;
64052;SDS011;50299;49.524;8.536;2023-05-18T12:20:21;4.57;;;2.15;;
64052;SDS011;50299;49.524;8.536;2023-05-18T12:22:51;3.95;;;2.10;;
64052;SDS011;50299;49.524;8.536;2023-05-18T12:25:23;5.80;;;2.05;;
64052;SDS011;50299;49.524;8.536;2023-05-18T12:27:52;4.30;;;2.38;;
64052;SDS011;50299;49.524;8.536;2023-05-18T12:30:23;5.70;;;2.50;;
64052;SDS011;50299;49.524;8.536;2023-05-18T12:32:53;4.95;;;2.67;;
64052;SDS011;50299;49.524;8.536;2023-05-18T12:35:21;3.97;;;2.28;;
64052;SDS011;50299;49.524;8.536;2023-05-18T12:37:49;5.10;;;2.33;;
64052;SDS011;50299;49.524;8.536;2023-05-18T12:40:16;5.85;;;2.38;;
64052;SDS011;50299;49.524;8.536;2023-05-18T12:42:54;5.88;;;2.58;;
64052;SDS011;50299;49.524;8.536;2023-05-18T12:45:31;8.75;;;2.47;;
64052;SDS011;50299;49.524;8.536;2023-05-18T12:48:05;7.35;;;2.10;;
64052;SDS011;50299;49.524;8.536;2023-05-18T12:50:35;4.50;;;2.53;;
64052;SDS011;50299;49.524;8.536;2023-05-18T12:53:11;6.10;;;2.47;;
64052;SDS011;50299;49.524;8.536;2023-05-18T12:55:39;4.10;;;2.25;;
64052;SDS011;50299;49.524;8.536;2023-05-18T13:00:45;6.00;;;2.10;;
64052;SDS011;50299;49.524;8.536;2023-05-18T13:03:18;7.07;;;2.70;;
64052;SDS011;50299;49.524;8.536;2023-05-18T13:06:00;5.88;;;2.58;;
64052;SDS011;50299;49.524;8.536;2023-05-18T13:08:35;3.67;;;2.00;;
64052;SDS011;50299;49.524;8.536;2023-05-18T13:11:05;5.85;;;2.63;;
64052;SDS011;50299;49.524;8.536;2023-05-18T13:16:30;5.05;;;2.50;;
64052;SDS011;50299;49.524;8.536;2023-05-18T13:18:59;6.10;;;2.47;;
64052;SDS011;50299;49.524;8.536;2023-05-18T13:21:30;6.72;;;2.60;;
64052;SDS011;50299;49.524;8.536;2023-05-18T13:23:56;4.93;;;2.42;;
64052;SDS011;50299;49.524;8.536;2023-05-18T13:26:23;6.15;;;2.50;;
64052;SDS011;50299;49.524;8.536;2023-05-18T13:28:51;6.78;;;2.60;;
64052;SDS011;50299;49.524;8.536;2023-05-18T13:31:20;6.20;;;2.65;;
64052;SDS011;50299;49.524;8.536;2023-05-18T13:33:48;5.05;;;2.65;;
64052;SDS011;50299;49.524;8.536;2023-05-18T13:36:15;5.70;;;2.35;;
64052;SDS011;50299;49.524;8.536;2023-05-18T13:38:42;7.00;;;2.60;;
64052;SDS011;50299;49.524;8.536;2023-05-18T13:41:09;5.00;;;2.30;;
64052;SDS011;50299;49.524;8.536;2023-05-18T13:43:42;4.22;;;2.13;;
64052;SDS011;50299;49.524;8.536;2023-05-18T13:46:08;4.85;;;2.22;;
64052;SDS011;50299;49.524;8.536;2023-05-18T13:48:35;5.70;;;2.38;;
64052;SDS011;50299;49.524;8.536;2023-05-18T13:51:02;4.05;;;2.15;;
64052;SDS011;50299;49.524;8.536;2023-05-18T13:53:28;5.53;;;2.10;;
64052;SDS011;50299;49.524;8.536;2023-05-18T13:55:55;5.80;;;2.60;;
64052;SDS011;50299;49.524;8.536;2023-05-18T13:58:21;4.88;;;2.63;;
64052;SDS011;50299;49.524;8.536;2023-05-18T14:00:48;6.97;;;2.28;;
64052;SDS011;50299;49.524;8.536;2023-05-18T14:03:15;4.22;;;2.13;;
64052;SDS011;50299;49.524;8.536;2023-05-18T14:05:43;5.07;;;2.10;;
64052;SDS011;50299;49.524;8.536;2023-05-18T14:08:09;5.93;;;2.22;;
64052;SDS011;50299;49.524;8.536;2023-05-18T14:10:35;6.60;;;2.53;;
64052;SDS011;50299;49.524;8.536;2023-05-18T14:13:02;5.25;;;2.08;;
64052;SDS011;50299;49.524;8.536;2023-05-18T14:15:28;4.75;;;2.22;;
64052;SDS011;50299;49.524;8.536;2023-05-18T14:17:54;4.68;;;1.95;;
64052;SDS011;50299;49.524;8.536;2023-05-18T14:20:21;3.83;;;1.88;;
64052;SDS011;50299;49.524;8.536;2023-05-18T14:22:47;4.55;;;2.58;;
64052;SDS011;50299;49.524;8.536;2023-05-18T14:25:14;4.00;;;2.28;;
64052;SDS011;50299;49.524;8.536;2023-05-18T14:27:41;4.00;;;1.95;;
64052;SDS011;50299;49.524;8.536;2023-05-18T14:30:07;5.35;;;2.40;;
64052;SDS011;50299;49.524;8.536;2023-05-18T14:32:34;4.68;;;2.03;;
64052;SDS011;50299;49.524;8.536;2023-05-18T14:35:00;6.00;;;2.45;;
64052;SDS011;50299;49.524;8.536;2023-05-18T14:37:27;6.20;;;2.05;;
64052;SDS011;50299;49.524;8.536;2023-05-18T14:39:53;4.93;;;2.45;;
64052;SDS011;50299;49.524;8.536;2023-05-18T14:42:20;4.65;;;2.05;;
64052;SDS011;50299;49.524;8.536;2023-05-18T14:44:46;5.55;;;2.30;;
64052;SDS011;50299;49.524;8.536;2023-05-18T14:47:13;6.32;;;2.72;;
64052;SDS011;50299;49.524;8.536;2023-05-18T14:49:39;7.05;;;2.30;;
64052;SDS011;50299;49.524;8.536;2023-05-18T14:52:06;5.32;;;2.47;;
64052;SDS011;50299;49.524;8.536;2023-05-18T14:54:32;8.73;;;2.53;;
64052;SDS011;50299;49.524;8.536;2023-05-18T14:56:59;4.82;;;2.22;;
64052;SDS011;50299;49.524;8.536;2023-05-18T14:59:26;5.90;;;2.63;;
64052;SDS011;50299;49.524;8.536;2023-05-18T15:01:53;5.20;;;2.25;;
64052;SDS011;50299;49.524;8.536;2023-05-18T15:04:22;4.32;;;2.10;;
64052;SDS011;50299;49.524;8.536;2023-05-18T15:06:50;4.35;;;2.22;;
64052;SDS011;50299;49.524;8.536;2023-05-18T15:09:16;4.97;;;2.55;;
64052;SDS011;50299;49.524;8.536;2023-05-18T15:11:43;4.53;;;2.28;;
64052;SDS011;50299;49.524;8.536;2023-05-18T15:14:09;5.50;;;2.38;;
64052;SDS011;50299;49.524;8.536;2023-05-18T15:16:36;4.28;;;2.10;;
64052;SDS011;50299;49.524;8.536;2023-05-18T15:19:04;6.00;;;2.53;;
64052;SDS011;50299;49.524;8.536;2023-05-18T15:21:30;5.15;;;2.55;;
64052;SDS011;50299;49.524;8.536;2023-05-18T15:23:57;4.78;;;2.22;;